Time;durP1;ratioP1;P1;durP2;ratioP2;P2;SDS_P1;SDS_P2;PMS_P1;PMS_P2;Temp;Humidity;BMP_temperature;BMP_pressure;BME280_temperature;BME280_humidity;BME280_pressure;Samples;Min_cycle;Max_cycle;Signal;HPM_P1;HPM_P2
2022/03/24 00:01:34;;;;;;;14.93;8.65;;;6.00;75.80;;;;;;4977062;28;20217;-81
2022/03/24 00:03:59;;;;;;;12.35;8.23;;;6.20;73.80;;;;;;4980140;28;20184;-80
2022/03/24 00:06:25;;;;;;;14.07;8.13;;;6.50;74.40;;;;;;4978057;28;20191;-83
2022/03/24 00:08:50;;;;;;;14.10;7.97;;;6.40;75.00;;;;;;4976102;28;20195;-84
2022/03/24 00:11:17;;;;;;;14.33;7.60;;;6.30;80.60;;;;;;4981414;28;20243;-80
2022/03/24 00:13:43;;;;;;;15.48;8.77;;;6.10;81.00;;;;;;4980101;28;20187;-82
2022/03/24 00:16:09;;;;;;;13.90;8.50;;;5.90;80.90;;;;;;4978671;28;20188;-82
2022/03/24 00:18:35;;;;;;;16.80;7.82;;;5.80;80.80;;;;;;4981830;28;20561;-83
2022/03/24 00:21:01;;;;;;;15.03;7.80;;;5.70;79.90;;;;;;4980359;28;20302;-82
2022/03/24 00:23:26;;;;;;;17.92;8.68;;;5.70;77.60;;;;;;4980715;28;20176;-81
2022/03/24 00:25:52;;;;;;;15.20;8.43;;;5.90;75.70;;;;;;4977425;28;20176;-84
2022/03/24 00:28:17;;;;;;;20.63;11.17;;;5.90;75.60;;;;;;4975708;28;20198;-81
2022/03/24 00:30:44;;;;;;;21.97;13.53;;;5.90;79.20;;;;;;4977675;28;20242;-81
2022/03/24 00:33:10;;;;;;;21.17;10.27;;;5.70;82.60;;;;;;4979835;28;20251;-81
2022/03/24 00:35:37;;;;;;;21.70;12.30;;;5.50;85.20;;;;;;4989147;28;20187;-81
2022/03/24 00:38:02;;;;;;;23.33;11.82;;;5.40;88.30;;;;;;4974552;28;20187;-81
2022/03/24 00:40:28;;;;;;;20.90;12.80;;;5.30;90.40;;;;;;4977173;28;20283;-83
2022/03/24 00:42:53;;;;;;;28.00;15.20;;;5.20;90.80;;;;;;4977556;28;20180;-82
2022/03/24 00:45:20;;;;;;;21.20;11.23;;;5.20;91.20;;;;;;4979737;28;20270;-81
2022/03/24 00:47:46;;;;;;;14.65;8.15;;;5.10;90.90;;;;;;4976201;28;20180;-79
2022/03/24 00:50:13;;;;;;;17.37;9.77;;;5.00;90.30;;;;;;4977542;28;20215;-82
2022/03/24 00:52:43;;;;;;;13.95;7.35;;;4.90;89.10;;;;;;4977198;28;20180;-80
2022/03/24 00:55:17;;;;;;;13.73;7.95;;;5.10;88.50;;;;;;4981362;28;20176;-82
2022/03/24 00:57:44;;;;;;;16.42;8.90;;;5.20;88.90;;;;;;4978031;28;20229;-81
2022/03/24 01:00:15;;;;;;;16.60;10.45;;;5.20;89.00;;;;;;4979065;28;20230;-81
2022/03/24 01:02:41;;;;;;;23.17;12.50;;;5.30;88.30;;;;;;4973828;28;20187;-80
2022/03/24 01:05:08;;;;;;;17.80;11.43;;;5.30;87.10;;;;;;4977481;28;20544;-80
2022/03/24 01:07:34;;;;;;;18.30;12.38;;;5.30;86.70;;;;;;4977414;28;20242;-80
2022/03/24 01:10:00;;;;;;;24.85;12.35;;;5.30;86.90;;;;;;4977513;28;20219;-82
2022/03/24 01:12:25;;;;;;;24.20;12.23;;;5.30;87.00;;;;;;4978475;28;20186;-81
2022/03/24 01:14:51;;;;;;;27.13;13.47;;;5.30;87.00;;;;;;4978468;28;20222;-79
2022/03/24 01:17:18;;;;;;;22.40;12.80;;;5.30;87.10;;;;;;4978195;28;20194;-82
2022/03/24 01:19:44;;;;;;;21.88;13.73;;;5.20;86.70;;;;;;4976307;28;20242;-81
2022/03/24 01:22:10;;;;;;;15.52;9.35;;;5.20;87.50;;;;;;4988461;28;20318;-79
2022/03/24 01:24:38;;;;;;;18.20;8.43;;;5.10;89.90;;;;;;4979392;28;20214;-80
2022/03/24 01:27:05;;;;;;;18.45;10.90;;;4.90;92.00;;;;;;4975638;28;20489;-83
2022/03/24 01:29:31;;;;;;;23.88;12.15;;;4.80;92.40;;;;;;4979586;28;20190;-83
2022/03/24 01:31:57;;;;;;;26.25;13.52;;;4.70;92.20;;;;;;4979177;28;20186;-81
2022/03/24 01:34:24;;;;;;;24.17;13.93;;;4.60;92.10;;;;;;4977938;28;20656;-82
2022/03/24 01:36:50;;;;;;;21.23;12.82;;;4.70;92.10;;;;;;4978381;28;20943;-81
2022/03/24 01:39:16;;;;;;;22.27;11.63;;;4.70;91.90;;;;;;4974332;28;20242;-81
2022/03/24 01:41:44;;;;;;;18.23;9.20;;;4.80;91.30;;;;;;4976505;28;20455;-80
2022/03/24 01:44:12;;;;;;;21.38;11.50;;;4.70;90.90;;;;;;4975556;28;20490;-81
2022/03/24 01:46:38;;;;;;;19.10;11.38;;;4.70;90.80;;;;;;4978020;28;20184;-82
2022/03/24 01:49:04;;;;;;;21.50;11.60;;;4.80;90.60;;;;;;4978960;28;20180;-82
2022/03/24 01:51:29;;;;;;;25.50;12.17;;;4.90;90.40;;;;;;4979724;28;20509;-81
2022/03/24 01:53:59;;;;;;;20.87;13.00;;;4.90;90.20;;;;;;4981066;28;20180;-81
2022/03/24 01:56:26;;;;;;;22.50;11.93;;;4.80;90.30;;;;;;4973741;28;20188;-80
2022/03/24 01:58:54;;;;;;;26.13;13.65;;;4.70;90.40;;;;;;4977013;28;20243;-81
2022/03/24 02:01:36;;;;;;;24.67;14.02;;;4.70;90.70;;;;;;4974035;28;20625;-81
2022/03/24 02:04:06;;;;;;;20.02;11.45;;;4.60;91.60;;;;;;4975245;28;20552;-80
2022/03/24 02:06:34;;;;;;;25.10;12.93;;;4.50;92.70;;;;;;4978687;28;20225;-82
2022/03/24 02:09:00;;;;;;;20.30;13.32;;;4.30;93.80;;;;;;4978137;28;20607;-81
2022/03/24 02:11:27;;;;;;;26.20;12.80;;;4.30;93.90;;;;;;4976952;28;20581;-83
2022/03/24 02:13:54;;;;;;;23.75;13.00;;;4.20;94.60;;;;;;4976219;28;20184;-81
2022/03/24 02:16:20;;;;;;;20.20;12.18;;;4.10;94.90;;;;;;4978927;28;20180;-82
2022/03/24 02:18:46;;;;;;;20.67;12.57;;;4.10;95.10;;;;;;4975026;28;20247;-81
2022/03/24 02:21:15;;;;;;;20.05;12.77;;;4.10;95.20;;;;;;4977464;28;20211;-82
2022/03/24 02:23:44;;;;;;;26.17;14.20;;;4.10;95.30;;;;;;4977296;28;20234;-81
2022/03/24 02:26:10;;;;;;;18.77;11.65;;;4.00;95.30;;;;;;4993680;28;20180;-81
2022/03/24 02:28:36;;;;;;;26.73;14.15;;;4.00;95.50;;;;;;4977321;28;20638;-78
2022/03/24 02:31:04;;;;;;;25.13;12.65;;;4.00;95.30;;;;;;4973866;28;20214;-82
2022/03/24 02:33:31;;;;;;;24.83;13.82;;;4.10;95.20;;;;;;4974349;28;20184;-81
2022/03/24 02:35:56;;;;;;;34.17;19.13;;;4.10;95.20;;;;;;4975499;28;20176;-82
2022/03/24 02:38:22;;;;;;;36.10;18.00;;;4.10;97.70;;;;;;4978848;28;20210;-81
2022/03/24 02:40:51;;;;;;;32.63;18.77;;;4.10;99.90;;;;;;4976195;28;20207;-81
2022/03/24 02:43:19;;;;;;;32.25;18.05;;;4.20;99.90;;;;;;4971453;28;20438;-81
2022/03/24 02:45:46;;;;;;;32.17;16.75;;;4.10;99.90;;;;;;4973558;28;20797;-80
2022/03/24 02:48:12;;;;;;;41.97;17.95;;;4.10;99.90;;;;;;4973541;28;20239;-82
2022/03/24 02:50:37;;;;;;;32.88;15.45;;;4.10;99.90;;;;;;4974682;28;20206;-81
2022/03/24 02:53:03;;;;;;;20.37;12.73;;;4.00;99.90;;;;;;4972646;28;20180;-82
2022/03/24 02:55:30;;;;;;;28.13;14.98;;;4.00;99.90;;;;;;4972730;28;20186;-80
2022/03/24 02:57:56;;;;;;;35.20;17.13;;;3.90;99.90;;;;;;4975574;28;20188;-81
2022/03/24 03:00:25;;;;;;;26.17;15.30;;;3.90;99.90;;;;;;4973513;28;20704;-81
2022/03/24 03:02:52;;;;;;;27.10;15.50;;;3.90;99.90;;;;;;4988304;28;21246;-82
2022/03/24 03:05:18;;;;;;;34.42;16.42;;;3.80;99.90;;;;;;4974462;28;20584;-81
2022/03/24 03:07:44;;;;;;;29.25;14.57;;;3.70;99.90;;;;;;4974947;28;20179;-83
2022/03/24 03:10:10;;;;;;;21.70;12.70;;;3.70;99.90;;;;;;4977915;28;21124;-81
2022/03/24 03:12:36;;;;;;;22.75;14.70;;;3.60;99.90;;;;;;4978865;28;20188;-83
2022/03/24 03:15:06;;;;;;;23.03;13.00;;;3.60;99.90;;;;;;4978947;28;20222;-82
2022/03/24 03:17:34;;;;;;;20.55;11.25;;;3.60;99.90;;;;;;4981145;28;20176;-81
2022/03/24 03:20:00;;;;;;;25.70;14.95;;;3.60;99.90;;;;;;4972221;28;20204;-83
2022/03/24 03:22:26;;;;;;;32.07;15.80;;;3.50;99.90;;;;;;4975347;28;20255;-81
2022/03/24 03:24:52;;;;;;;33.42;17.23;;;3.50;99.90;;;;;;4971137;28;20446;-82
2022/03/24 03:27:18;;;;;;;31.70;17.50;;;3.40;99.90;;;;;;4974051;28;20672;-82
2022/03/24 03:29:43;;;;;;;29.87;17.13;;;3.40;99.90;;;;;;4973604;28;20450;-82
2022/03/24 03:32:10;;;;;;;30.93;18.40;;;3.30;99.90;;;;;;4977743;28;20176;-81
2022/03/24 03:34:38;;;;;;;30.92;17.77;;;3.30;99.90;;;;;;4977685;28;20187;-82
2022/03/24 03:37:05;;;;;;;29.73;17.25;;;3.30;99.90;;;;;;4965691;28;20675;-83
2022/03/24 03:39:30;;;;;;;25.88;14.68;;;3.30;99.90;;;;;;4980774;28;20661;-82
2022/03/24 03:41:57;;;;;;;28.93;15.17;;;3.30;99.90;;;;;;4975282;28;20303;-84
2022/03/24 03:44:24;;;;;;;30.40;16.38;;;3.30;99.90;;;;;;4988674;28;20183;-80
2022/03/24 03:46:51;;;;;;;35.30;18.15;;;3.20;99.90;;;;;;4980846;28;20179;-82
2022/03/24 03:49:18;;;;;;;42.40;18.20;;;3.10;99.90;;;;;;4981824;28;20421;-82
2022/03/24 03:51:45;;;;;;;31.48;16.52;;;3.10;99.90;;;;;;4980893;28;20195;-80
2022/03/24 03:54:10;;;;;;;31.50;16.55;;;3.00;99.90;;;;;;4978390;28;20685;-84
2022/03/24 03:56:37;;;;;;;34.07;17.40;;;3.00;99.90;;;;;;4985583;28;20284;-84
2022/03/24 03:59:04;;;;;;;30.65;16.40;;;2.90;99.90;;;;;;4977012;28;20442;-82
2022/03/24 04:01:30;;;;;;;31.40;15.60;;;2.90;99.90;;;;;;4976005;28;20195;-82
2022/03/24 04:03:56;;;;;;;26.13;15.27;;;2.90;99.90;;;;;;4978447;28;20211;-83
2022/03/24 04:06:24;;;;;;;29.80;13.02;;;2.90;99.90;;;;;;4975372;28;21016;-84
2022/03/24 04:08:50;;;;;;;22.55;10.95;;;2.80;99.90;;;;;;4977520;28;20850;-85
2022/03/24 04:11:16;;;;;;;21.57;9.90;;;;;;;;;;4976791;23;20223;-88
2022/03/24 04:13:42;;;;;;;20.30;10.93;;;2.60;99.90;;;;;;4960917;28;20518;-87
2022/03/24 04:16:13;;;;;;;27.23;13.32;;;2.30;99.90;;;;;;4946510;28;21358;-87
2022/03/24 04:18:43;;;;;;;28.55;14.35;;;2.20;99.90;;;;;;4946965;28;20189;-87
2022/03/24 04:21:10;;;;;;;23.95;14.30;;;2.20;99.90;;;;;;4946691;28;20708;-87
2022/03/24 04:23:37;;;;;;;28.25;13.95;;;2.50;99.90;;;;;;4946689;28;20215;-84
2022/03/24 04:26:03;;;;;;;32.83;15.82;;;2.20;99.90;;;;;;4962849;28;20182;-88
2022/03/24 04:28:29;;;;;;;31.17;14.70;;;2.20;99.90;;;;;;4947330;28;20181;-87
2022/03/24 04:30:55;;;;;;;31.60;16.20;;;2.20;99.90;;;;;;4947838;28;20226;-88
2022/03/24 04:33:21;;;;;;;34.80;16.00;;;2.20;99.90;;;;;;4944048;28;20270;-88
2022/03/24 04:35:47;;;;;;;38.27;17.70;;;2.20;99.90;;;;;;4946344;28;20267;-89
2022/03/24 04:38:14;;;;;;;31.70;19.30;;;2.20;99.90;;;;;;4945966;28;20528;-86
2022/03/24 04:40:40;;;;;;;37.67;21.55;;;2.30;99.90;;;;;;4944531;28;21290;-89
2022/03/24 04:43:06;;;;;;;35.05;17.83;;;2.20;99.90;;;;;;4962977;28;20259;-88
2022/03/24 04:45:33;;;;;;;33.17;19.20;;;2.20;99.90;;;;;;4946898;28;20484;-87
2022/03/24 04:48:00;;;;;;;31.65;17.65;;;2.20;99.90;;;;;;4949376;28;20192;-86
2022/03/24 04:50:26;;;;;;;26.88;15.75;;;2.20;99.90;;;;;;4945449;28;20764;-87
2022/03/24 04:52:52;;;;;;;29.92;16.73;;;2.20;99.90;;;;;;4962561;28;20534;-88
2022/03/24 04:55:18;;;;;;;29.90;15.63;;;2.10;99.90;;;;;;4949736;28;20195;-88
2022/03/24 04:57:44;;;;;;;25.07;12.87;;;2.10;99.90;;;;;;4944163;28;20199;-87
2022/03/24 05:00:11;;;;;;;22.38;13.00;;;2.10;99.90;;;;;;4962447;28;20846;-87
2022/03/24 05:02:37;;;;;;;25.25;14.27;;;2.10;99.90;;;;;;4942536;28;20242;-87
2022/03/24 05:05:03;;;;;;;21.63;13.95;;;2.10;99.90;;;;;;4950429;28;20188;-87
2022/03/24 05:07:29;;;;;;;32.67;15.47;;;2.00;99.90;;;;;;4960625;28;20185;-87
2022/03/24 05:09:54;;;;;;;32.93;18.13;;;2.00;99.90;;;;;;4947044;28;20450;-89
2022/03/24 05:12:20;;;;;;;31.97;17.70;;;2.00;99.90;;;;;;4942608;28;21322;-88
2022/03/24 05:14:46;;;;;;;34.43;17.37;;;1.90;99.90;;;;;;4943967;28;20196;-87
2022/03/24 05:17:12;;;;;;;40.35;18.02;;;1.90;99.90;;;;;;4942135;28;21185;-87
2022/03/24 05:19:39;;;;;;;36.70;19.13;;;1.90;99.90;;;;;;4942262;28;20180;-88
2022/03/24 05:22:05;;;;;;;27.02;16.17;;;2.00;99.90;;;;;;4945641;28;20208;-88
2022/03/24 05:24:31;;;;;;;26.70;15.27;;;2.00;99.90;;;;;;4943835;28;20191;-87
2022/03/24 05:26:57;;;;;;;24.27;14.23;;;2.10;99.90;;;;;;4940732;28;20180;-87
2022/03/24 05:29:22;;;;;;;25.63;14.50;;;2.20;99.90;;;;;;4942109;28;20206;-86
2022/03/24 05:31:48;;;;;;;28.40;16.63;;;2.10;99.90;;;;;;4937626;28;20275;-85
2022/03/24 05:34:14;;;;;;;27.70;15.70;;;2.20;99.90;;;;;;4940975;28;20179;-87
2022/03/24 05:36:39;;;;;;;26.90;14.80;;;2.20;99.90;;;;;;4941336;28;20207;-87
2022/03/24 05:39:05;;;;;;;27.73;17.27;;;2.40;99.90;;;;;;4944318;28;21504;-87
2022/03/24 05:41:31;;;;;;;26.93;14.77;;;2.90;99.90;;;;;;4970685;28;20242;-86
2022/03/24 05:44:03;;;;;;;24.87;14.07;;;3.70;99.90;;;;;;4956155;28;20563;-88
2022/03/24 05:46:34;;;;;;;23.70;14.07;;;4.60;99.90;;;;;;4931190;28;21279;-88
2022/03/24 05:49:01;;;;;;;26.15;15.20;;;5.70;99.90;;;;;;4958861;28;20320;-87
2022/03/24 05:51:27;;;;;;;26.55;14.45;;;6.70;99.90;;;;;;4944088;28;20223;-87
2022/03/24 05:53:53;;;;;;;25.42;14.43;;;7.70;99.90;;;;;;4954154;28;20193;-87
2022/03/24 05:56:19;;;;;;;23.95;14.48;;;8.80;99.90;;;;;;4939276;28;20201;-87
2022/03/24 05:58:45;;;;;;;23.60;14.50;;;9.80;99.90;;;;;;4949026;28;20426;-87
2022/03/24 06:01:11;;;;;;;20.50;12.55;;;10.80;99.90;;;;;;4951324;28;20719;-87
2022/03/24 06:03:37;;;;;;;23.45;12.30;;;11.90;96.60;;;;;;4937454;28;20446;-86
2022/03/24 06:06:08;;;;;;;20.77;12.80;;;12.80;92.70;;;;;;4929739;28;20215;-87
2022/03/24 06:08:35;;;;;;;23.60;12.27;;;13.70;88.10;;;;;;4930017;28;20894;-85
2022/03/24 06:11:01;;;;;;;23.02;13.25;;;14.20;78.60;;;;;;4948605;28;20694;-87
2022/03/24 06:13:27;;;;;;;24.17;15.38;;;15.00;75.30;;;;;;4947132;28;20187;-87
2022/03/24 06:15:54;;;;;;;28.48;18.20;;;15.30;66.70;;;;;;4940403;28;20192;-87
2022/03/24 06:18:20;;;;;;;24.83;17.10;;;16.60;63.60;;;;;;4950942;28;20545;-87
2022/03/24 06:20:46;;;;;;;27.73;19.43;;;16.70;64.00;;;;;;4938585;28;20896;-85
2022/03/24 06:23:12;;;;;;;24.80;17.40;;;17.50;61.60;;;;;;4939460;28;20435;-86
2022/03/24 06:25:38;;;;;;;24.03;15.20;;;18.40;59.70;;;;;;4952192;28;20432;-88
2022/03/24 06:28:05;;;;;;;27.27;17.03;;;18.70;55.20;;;;;;4927827;28;20528;-87
2022/03/24 06:30:31;;;;;;;32.40;19.20;;;20.00;53.80;;;;;;4936670;28;20200;-87
2022/03/24 06:32:57;;;;;;;33.77;19.10;;;20.80;50.80;;;;;;4936508;28;20496;-87
2022/03/24 06:35:22;;;;;;;26.10;19.70;;;;;;;;;;4946965;28;20606;-87
2022/03/24 06:37:50;;;;;;;33.07;21.10;;;20.50;48.80;;;;;;4936494;28;20444;-87
2022/03/24 06:40:16;;;;;;;28.77;20.80;;;20.20;49.30;;;;;;4927388;28;20494;-87
2022/03/24 06:42:42;;;;;;;31.40;22.00;;;19.50;48.20;;;;;;4939671;28;20459;-88
2022/03/24 06:45:10;;;;;;;29.90;21.10;;;19.50;48.70;;;;;;4951381;28;20431;-87
2022/03/24 06:47:36;;;;;;;29.43;19.93;;;19.10;48.90;;;;;;4939836;28;20447;-86
2022/03/24 06:50:03;;;;;;;36.63;22.40;;;19.40;49.50;;;;;;4952030;28;20909;-86
2022/03/24 06:52:28;;;;;;;29.37;20.87;;;19.40;48.10;;;;;;4949656;28;20454;-85
2022/03/24 06:54:54;;;;;;;30.73;21.33;;;19.10;48.20;;;;;;4956847;28;20534;-87
2022/03/24 06:57:20;;;;;;;37.37;22.27;;;19.10;48.60;;;;;;4952175;28;20188;-85
2022/03/24 06:59:45;;;;;;;33.27;23.37;;;19.50;47.00;;;;;;4941205;28;20255;-86
2022/03/24 07:02:11;;;;;;;31.43;21.53;;;18.90;47.60;;;;;;4952514;28;20220;-86
2022/03/24 07:04:36;;;;;;;31.30;21.43;;;18.90;48.10;;;;;;4950549;28;20192;-87
2022/03/24 07:07:04;;;;;;;34.17;21.20;;;19.90;48.40;;;;;;4937325;28;20182;-86
2022/03/24 07:09:30;;;;;;;28.60;20.67;;;20.80;47.50;;;;;;4934499;28;20291;-87
2022/03/24 07:11:55;;;;;;;33.57;21.50;;;22.00;47.90;;;;;;4936231;28;21247;-86
2022/03/24 07:14:21;;;;;;;37.37;20.87;;;23.50;45.50;;;;;;4935334;28;20193;-85
2022/03/24 07:16:47;;;;;;;36.00;21.70;;;22.90;42.20;;;;;;4931743;28;20454;-87
2022/03/24 07:19:13;;;;;;;32.97;22.03;;;22.90;42.70;;;;;;4937311;28;20432;-86
2022/03/24 07:21:38;;;;;;;27.57;20.27;;;22.60;44.00;;;;;;4931970;28;20215;-87
2022/03/24 07:24:04;;;;;;;30.83;23.30;;;21.60;42.80;;;;;;4951315;28;20625;-86
2022/03/24 07:26:30;;;;;;;34.37;22.67;;;20.70;43.10;;;;;;4934372;28;20180;-87
2022/03/24 07:28:56;;;;;;;33.03;23.50;;;20.60;44.30;;;;;;4938087;28;20440;-87
2022/03/24 07:31:23;;;;;;;34.33;23.53;;;21.70;44.50;;;;;;4944483;28;20210;-87
2022/03/24 07:33:50;;;;;;;31.80;23.80;;;21.50;43.10;;;;;;4938170;28;20199;-86
2022/03/24 07:36:20;;;;;;;28.67;21.70;;;22.60;43.60;;;;;;4930751;28;20435;-88
2022/03/24 07:38:46;;;;;;;34.73;21.30;;;21.90;41.10;;;;;;4931956;28;21887;-85
2022/03/24 07:41:11;;;;;;;36.43;24.63;;;21.20;42.30;;;;;;4938663;28;20483;-87
2022/03/24 07:43:37;;;;;;;32.07;23.87;;;20.50;42.70;;;;;;4937352;28;20211;-86
2022/03/24 07:46:03;;;;;;;31.30;21.47;;;21.60;42.90;;;;;;4938468;28;20518;-87
2022/03/24 07:48:30;;;;;;;32.37;23.00;;;22.60;42.30;;;;;;4951390;28;20554;-86
2022/03/24 07:50:57;;;;;;;34.07;22.33;;;23.40;42.20;;;;;;4933797;28;20208;-86
2022/03/24 07:53:30;;;;;;;39.93;24.10;;;22.80;40.60;;;;;;4942395;28;20960;-87
2022/03/24 07:55:58;;;;;;;31.00;23.13;;;22.60;41.80;;;;;;4934285;28;20534;-86
2022/03/24 07:58:23;;;;;;;40.90;24.30;;;22.00;42.10;;;;;;4935413;28;20451;-86
2022/03/24 08:00:49;;;;;;;33.47;23.37;;;21.70;42.40;;;;;;4942530;28;20512;-85
2022/03/24 08:03:17;;;;;;;30.03;21.80;;;23.20;42.80;;;;;;4966130;28;20217;-85
2022/03/24 08:05:44;;;;;;;32.20;23.37;;;24.20;42.10;;;;;;4963770;28;20454;-84
2022/03/24 08:08:10;;;;;;;31.03;23.50;;;24.70;39.60;;;;;;4951739;28;21101;-86
2022/03/24 08:10:42;;;;;;;36.33;23.60;;;23.50;40.60;;;;;;4962829;28;20472;-86
2022/03/24 08:13:09;;;;;;;34.33;22.03;;;;;;;;;;4943283;28;20467;-83
2022/03/24 08:15:36;;;;;;;32.87;24.93;;;22.70;42.90;;;;;;4970997;28;20441;-86
2022/03/24 08:18:04;;;;;;;30.77;23.13;;;22.00;42.50;;;;;;4951427;28;20436;-85
2022/03/24 08:20:30;;;;;;;29.77;23.63;;;22.00;44.40;;;;;;4937567;29;20447;-86
2022/03/24 08:22:55;;;;;;;34.03;24.90;;;22.70;43.20;;;;;;4962907;28;20523;-85
2022/03/24 08:25:21;;;;;;;32.17;23.77;;;23.10;42.80;;;;;;4952375;28;20204;-85
2022/03/24 08:27:47;;;;;;;34.70;25.63;;;23.60;43.60;;;;;;4963074;28;20419;-86
2022/03/24 08:30:12;;;;;;;27.53;22.73;;;24.30;44.00;;;;;;4960154;28;20222;-85
2022/03/24 08:32:39;;;;;;;34.30;24.97;;;24.20;41.90;;;;;;4980004;28;20425;-85
2022/03/24 08:35:05;;;;;;;31.40;23.00;;;23.90;42.30;;;;;;4983373;28;20194;-85
2022/03/24 08:37:31;;;;;;;37.97;25.73;;;24.80;44.30;;;;;;4981649;28;20418;-85
2022/03/24 08:39:56;;;;;;;30.83;23.20;;;26.60;39.00;;;;;;4978433;28;20969;-84
2022/03/24 08:42:23;;;;;;;34.70;23.53;;;26.50;39.50;;;;;;4950298;28;20562;-84
2022/03/24 08:44:49;;;;;;;31.43;25.10;;;25.70;40.90;;;;;;4957294;28;20182;-86
2022/03/24 08:47:15;;;;;;;34.40;23.43;;;25.30;41.20;;;;;;4957713;28;20445;-84
2022/03/24 08:49:41;;;;;;;33.70;23.80;;;24.60;40.80;;;;;;4969632;28;20475;-85
2022/03/24 08:52:07;;;;;;;33.27;24.00;;;24.90;42.80;;;;;;4964847;28;20232;-86
2022/03/24 08:54:33;;;;;;;31.03;22.40;;;24.10;42.10;;;;;;4980629;28;20423;-85
2022/03/24 08:56:59;;;;;;;33.40;23.17;;;24.30;42.60;;;;;;4962044;28;20937;-84
2022/03/24 08:59:24;;;;;;;30.27;22.97;;;25.50;42.30;;;;;;4961116;28;20190;-85
2022/03/24 09:01:50;;;;;;;34.30;24.10;;;25.90;41.10;;;;;;4962117;28;20580;-85
2022/03/24 09:04:16;;;;;;;27.37;22.70;;;25.90;40.90;;;;;;4962822;28;20239;-85
2022/03/24 09:06:41;;;;;;;31.07;23.97;;;26.30;40.70;;;;;;4973755;28;20211;-85
2022/03/24 09:09:07;;;;;;;32.30;23.43;;;26.10;40.00;;;;;;4955107;28;21025;-84
2022/03/24 09:11:33;;;;;;;30.67;24.00;;;26.20;41.90;;;;;;4947567;29;20233;-85
2022/03/24 09:13:58;;;;;;;30.20;23.30;;;25.80;40.90;;;;;;4950881;29;20252;-85
2022/03/24 09:16:24;;;;;;;35.20;23.80;;;26.10;41.20;;;;;;4955698;28;20182;-85
2022/03/24 09:18:50;;;;;;;36.30;24.13;;;25.50;40.10;;;;;;4949378;28;20303;-84
2022/03/24 09:21:19;;;;;;;36.07;24.73;;;24.70;41.30;;;;;;4965997;28;20584;-85
2022/03/24 09:23:44;;;;;;;40.63;25.27;;;24.60;41.70;;;;;;4971829;28;20544;-85
2022/03/24 09:26:12;;;;;;;28.63;22.20;;;26.10;41.20;;;;;;4951465;28;20444;-85
2022/03/24 09:28:37;;;;;;;38.03;25.93;;;26.30;41.40;;;;;;4954419;28;20189;-85
2022/03/24 09:31:03;;;;;;;37.83;24.80;;;25.20;39.80;;;;;;4961806;28;20463;-84
2022/03/24 09:33:28;;;;;;;35.23;24.77;;;25.30;40.60;;;;;;4966369;28;20184;-85
2022/03/24 09:35:54;;;;;;;35.53;25.10;;;25.90;38.70;;;;;;4968821;28;20182;-85
2022/03/24 09:38:20;;;;;;;34.97;25.47;;;25.50;38.10;;;;;;4952969;28;20645;-85
2022/03/24 09:40:46;;;;;;;36.27;24.80;;;24.80;38.30;;;;;;4951050;28;20353;-86
2022/03/24 09:43:15;;;;;;;31.80;23.00;;;25.30;38.40;;;;;;4948226;28;20445;-84
2022/03/24 09:45:47;;;;;;;33.57;24.00;;;24.80;37.40;;;;;;4966393;28;20527;-85
2022/03/24 09:48:15;;;;;;;31.67;23.67;;;25.30;36.40;;;;;;4973189;28;20433;-85
2022/03/24 09:50:44;;;;;;;37.90;25.80;;;24.90;38.00;;;;;;4959631;28;20464;-86
2022/03/24 09:53:11;;;;;;;40.00;24.67;;;23.90;38.00;;;;;;4965194;28;20548;-85
2022/03/24 09:55:38;;;;;;;31.90;23.00;;;23.00;38.50;;;;;;4949241;28;20444;-85
2022/03/24 09:58:07;;;;;;;30.03;22.73;;;23.20;39.00;;;;;;4953786;28;20444;-86
2022/03/24 10:00:32;;;;;;;35.77;23.10;;;23.90;38.90;;;;;;4967547;28;20528;-85
2022/03/24 10:03:14;;;;;;;34.80;24.53;;;24.70;37.50;;;;;;4948728;28;20452;-85
2022/03/24 10:05:56;;;;;;;31.83;23.70;;;24.10;37.70;;;;;;4954155;28;20180;-85
2022/03/24 10:08:22;;;;;;;34.03;23.70;;;24.20;38.00;;;;;;4974454;28;21034;-85
2022/03/24 10:10:48;;;;;;;34.57;23.00;;;25.00;37.90;;;;;;4974605;28;20478;-85
2022/03/24 10:13:23;;;;;;;35.07;25.13;;;24.50;36.80;;;;;;4957221;28;20419;-86
2022/03/24 10:15:49;;;;;;;31.40;20.83;;;23.10;37.00;;;;;;4979599;28;20557;-85
2022/03/24 10:18:17;;;;;;;36.50;23.67;;;23.40;38.40;;;;;;4956442;28;20471;-84
2022/03/24 10:20:42;;;;;;;37.00;23.40;;;20.80;39.70;;;;;;4957744;28;20199;-85
2022/03/24 10:23:11;;;;;;;32.00;21.60;;;19.30;42.50;;;;;;4960392;28;20542;-85
2022/03/24 10:25:41;;;;;;;36.27;24.10;;;18.80;43.60;;;;;;4960605;28;20937;-85
2022/03/24 10:28:19;;;;;;;32.63;22.00;;;18.40;43.00;;;;;;4958027;28;20443;-84
2022/03/24 10:30:57;;;;;;;34.83;22.27;;;18.00;44.70;;;;;;4975752;28;20482;-84
2022/03/24 10:33:45;;;;;;;36.50;20.57;;;17.90;43.80;;;;;;4952705;28;20431;-84
2022/03/24 10:36:19;;;;;;;33.80;21.10;;;17.80;43.70;;;;;;4964762;28;20464;-84
2022/03/24 10:38:50;;;;;;;31.17;20.33;;;17.70;42.30;;;;;;4953148;28;20467;-82
2022/03/24 10:41:20;;;;;;;44.50;23.13;;;18.00;42.10;;;;;;4965131;28;20482;-83
2022/03/24 10:43:49;;;;;;;36.13;24.13;;;17.70;42.30;;;;;;4966806;28;20432;-84
2022/03/24 10:46:23;;;;;;;29.40;19.70;;;17.70;43.70;;;;;;4950156;28;20446;-83
2022/03/24 10:48:50;;;;;;;31.57;20.70;;;18.00;41.70;;;;;;4946857;28;20436;-85
2022/03/24 10:51:29;;;;;;;30.90;19.40;;;18.20;41.20;;;;;;4951522;28;20455;-84
2022/03/24 10:54:29;;;;;;;27.87;19.20;;;18.40;41.00;;;;;;4949896;28;20448;-83
2022/03/24 10:57:03;;;;;;;27.43;17.93;;;18.50;42.80;;;;;;4969349;28;20446;-84
2022/03/24 10:59:40;;;;;;;31.97;19.57;;;18.30;41.90;;;;;;4951137;28;20426;-84
2022/03/24 11:02:07;;;;;;;28.87;18.63;;;18.30;41.50;;;;;;4959010;28;20448;-83
2022/03/24 11:04:33;;;;;;;29.20;19.27;;;18.40;40.80;;;;;;4959313;28;20431;-84
2022/03/24 11:06:59;;;;;;;39.40;20.10;;;18.70;40.90;;;;;;4950766;28;20475;-85
2022/03/24 11:09:28;;;;;;;26.53;19.70;;;18.70;41.00;;;;;;4964611;28;20589;-85
2022/03/24 11:12:22;;;;;;;31.77;19.23;;;18.50;40.90;;;;;;4974204;28;20220;-84
2022/03/24 11:14:50;;;;;;;27.97;18.20;;;18.30;40.80;;;;;;4961987;28;20423;-86
2022/03/24 11:17:17;;;;;;;27.23;19.93;;;18.00;39.80;;;;;;4961396;28;20868;-85
2022/03/24 11:19:54;;;;;;;29.70;18.60;;;17.90;40.40;;;;;;4973855;28;20460;-85
2022/03/24 11:22:20;;;;;;;29.87;18.30;;;18.00;41.60;;;;;;4959943;23;20491;-81
2022/03/24 11:24:47;;;;;;;30.90;20.03;;;18.10;43.90;;;;;;4944779;28;20454;-85
2022/03/24 11:27:13;;;;;;;21.03;17.07;;;18.30;40.20;;;;;;4965813;28;20419;-81
2022/03/24 11:29:39;;;;;;;29.73;17.60;;;18.50;40.70;;;;;;4964980;28;20431;-84
2022/03/24 11:32:07;;;;;;;28.23;18.07;;;18.60;41.20;;;;;;4949182;28;21277;-81
2022/03/24 11:34:34;;;;;;;33.33;20.60;;;18.60;39.60;;;;;;4947613;28;20966;-81
2022/03/24 11:37:01;;;;;;;27.17;18.30;;;18.60;40.30;;;;;;4950907;28;20440;-79
2022/03/24 11:39:27;;;;;;;26.50;18.53;;;19.00;41.20;;;;;;4945428;28;21252;-83
2022/03/24 11:41:55;;;;;;;27.87;19.53;;;19.10;41.40;;;;;;4948097;28;20546;-78
2022/03/24 11:44:45;;;;;;;27.87;19.80;;;19.20;40.00;;;;;;4948917;28;20180;-80
2022/03/24 11:47:13;;;;;;;22.93;15.60;;;19.50;39.10;;;;;;4943674;28;20627;-82
2022/03/24 11:49:39;;;;;;;23.13;16.30;;;19.90;39.40;;;;;;4951296;28;20963;-82
2022/03/24 11:52:05;;;;;;;25.63;17.53;;;19.80;37.30;;;;;;4950445;28;20453;-81
2022/03/24 11:54:32;;;;;;;26.70;18.50;;;19.80;38.50;;;;;;4949669;28;20979;-79
2022/03/24 11:57:33;;;;;;;24.37;17.73;;;19.80;37.60;;;;;;4951225;28;20324;-81
2022/03/24 12:00:14;;;;;;;25.57;16.90;;;20.20;40.10;;;;;;4934937;29;20450;-78
2022/03/24 12:02:43;;;;;;;24.70;17.13;;;20.00;35.70;;;;;;4932207;28;20470;-81
2022/03/24 12:05:10;;;;;;;29.17;17.90;;;20.00;36.80;;;;;;4953598;28;21078;-83
2022/03/24 12:07:37;;;;;;;26.80;17.10;;;20.00;36.00;;;;;;4955660;28;20468;-81
2022/03/24 12:10:08;;;;;;;28.53;19.40;;;20.20;36.70;;;;;;4956993;28;20434;-81
2022/03/24 12:12:34;;;;;;;23.00;17.67;;;20.60;37.30;;;;;;4954404;28;20447;-82
2022/03/24 12:15:17;;;;;;;22.53;16.90;;;20.60;37.00;;;;;;4954834;28;20486;-81
2022/03/24 12:18:05;;;;;;;21.53;16.57;;;20.60;35.70;;;;;;4961038;28;20434;-84
2022/03/24 12:20:47;;;;;;;24.00;15.17;;;20.80;33.90;;;;;;4953295;28;20466;-81
2022/03/24 12:23:15;;;;;;;28.00;15.30;;;20.80;33.60;;;;;;4955526;28;20483;-81
2022/03/24 12:25:40;;;;;;;21.60;17.07;;;20.60;34.70;;;;;;4956672;28;20462;-80
2022/03/24 12:28:22;;;;;;;21.47;15.60;;;20.60;33.20;;;;;;4955838;28;20424;-81
2022/03/24 12:31:16;;;;;;;25.43;17.40;;;20.70;33.20;;;;;;4952308;28;20283;-84
2022/03/24 12:33:47;;;;;;;25.77;18.13;;;20.80;32.90;;;;;;4947860;28;20506;-81
2022/03/24 12:36:14;;;;;;;25.90;17.83;;;20.70;34.60;;;;;;4950065;28;20424;-80